createdAt,value
2022-11-15T00:01:31.080Z,100207.00
2022-11-15T00:03:59.815Z,100206.00
2022-11-15T00:06:28.442Z,100203.00
2022-11-15T00:08:57.293Z,100209.00
2022-11-15T00:11:25.968Z,100206.00
2022-11-15T00:13:58.139Z,100206.00
2022-11-15T00:16:27.331Z,100194.00
2022-11-15T00:18:56.022Z,100187.00
2022-11-15T00:21:24.865Z,100184.00
2022-11-15T00:23:53.572Z,100190.00
2022-11-15T00:26:22.227Z,100183.00
2022-11-15T00:28:50.921Z,100191.00
2022-11-15T00:31:21.049Z,100182.00
2022-11-15T00:33:49.817Z,100186.00
2022-11-15T00:36:18.550Z,100181.00
2022-11-15T00:38:47.247Z,100187.00
2022-11-15T00:41:15.981Z,100181.00
2022-11-15T00:43:45.065Z,100189.00
2022-11-15T00:46:13.980Z,100190.00
2022-11-15T00:48:44.150Z,100189.00
2022-11-15T00:51:12.910Z,100202.00
2022-11-15T00:53:41.634Z,100203.00
2022-11-15T00:56:10.452Z,100192.00
2022-11-15T00:58:39.065Z,100190.00
2022-11-15T01:01:12.653Z,100196.00
2022-11-15T01:03:43.744Z,100196.00
2022-11-15T01:06:12.745Z,100193.00
2022-11-15T01:08:42.207Z,100185.00
2022-11-15T01:11:14.098Z,100181.00
2022-11-15T01:13:43.052Z,100179.00
2022-11-15T01:16:14.087Z,100180.00
2022-11-15T01:18:44.332Z,100175.00
2022-11-15T01:21:14.966Z,100174.00
2022-11-15T01:23:43.701Z,100174.00
2022-11-15T01:26:14.226Z,100168.00
2022-11-15T01:28:43.828Z,100170.00
2022-11-15T01:31:16.073Z,100169.00
2022-11-15T01:33:46.536Z,100169.00
2022-11-15T01:36:17.550Z,100153.00
2022-11-15T01:38:46.449Z,100155.00
2022-11-15T01:41:20.256Z,100148.00
2022-11-15T01:43:51.421Z,100159.00
2022-11-15T01:46:33.143Z,100145.00
2022-11-15T01:49:07.784Z,100147.00
2022-11-15T01:51:36.629Z,100144.00
2022-11-15T01:54:09.947Z,100136.00
2022-11-15T01:56:43.163Z,100139.00
2022-11-15T01:59:13.852Z,100134.00
2022-11-15T02:01:42.721Z,100127.00
2022-11-15T02:04:15.965Z,100127.00
2022-11-15T02:06:46.760Z,100125.00
2022-11-15T02:09:16.117Z,100139.00
2022-11-15T02:11:46.057Z,100127.00
2022-11-15T02:14:16.265Z,100138.00
2022-11-15T02:16:55.316Z,100138.00
2022-11-15T02:19:43.284Z,100128.00
2022-11-15T02:22:26.592Z,100117.00
2022-11-15T02:25:12.310Z,100124.00
2022-11-15T02:28:12.964Z,100111.00
2022-11-15T02:30:47.131Z,100107.00
2022-11-15T02:33:28.698Z,100107.00
2022-11-15T02:36:02.120Z,100115.00
2022-11-15T02:38:39.229Z,100109.00
2022-11-15T02:41:12.263Z,100103.00
2022-11-15T02:43:57.600Z,100103.00
2022-11-15T02:46:52.969Z,100087.00
2022-11-15T02:49:22.345Z,100086.00
2022-11-15T02:51:53.076Z,100081.00
2022-11-15T02:54:25.749Z,100083.00
2022-11-15T02:56:56.895Z,100082.00
2022-11-15T02:59:51.564Z,100083.00
2022-11-15T03:02:33.400Z,100084.00
2022-11-15T03:05:12.002Z,100078.00
2022-11-15T03:07:45.345Z,100081.00
2022-11-15T03:10:21.068Z,100087.00
2022-11-15T03:12:56.426Z,100076.00
2022-11-15T03:15:30.571Z,100081.00
2022-11-15T03:18:04.443Z,100086.00
2022-11-15T03:20:34.550Z,100082.00
2022-11-15T03:23:06.507Z,100069.00
2022-11-15T03:25:38.630Z,100073.00
2022-11-15T03:28:11.465Z,100064.00
2022-11-15T03:30:42.109Z,100078.00
2022-11-15T03:33:13.526Z,100076.00
2022-11-15T03:35:45.671Z,100078.00
2022-11-15T03:38:19.399Z,100059.00
2022-11-15T03:40:55.610Z,100054.00
2022-11-15T03:43:32.125Z,100055.00
2022-11-15T03:46:04.485Z,100053.00
2022-11-15T03:48:39.265Z,100053.00
2022-11-15T03:51:08.528Z,100049.00
2022-11-15T03:53:37.200Z,100049.00
2022-11-15T03:56:06.241Z,100047.00
2022-11-15T03:58:35.058Z,100043.00
2022-11-15T04:01:03.878Z,100041.00
2022-11-15T04:03:34.308Z,100041.00
2022-11-15T04:06:03.254Z,100042.00
2022-11-15T04:08:31.944Z,100037.00
2022-11-15T04:11:02.344Z,100038.00
2022-11-15T04:13:31.625Z,100038.00
2022-11-15T04:16:00.520Z,100039.00
2022-11-15T04:18:29.193Z,100038.00
2022-11-15T04:21:16.720Z,100038.00
2022-11-15T04:24:02.004Z,100033.00
2022-11-15T04:26:30.801Z,100032.00
2022-11-15T04:29:16.666Z,100028.00
2022-11-15T04:31:45.365Z,100040.00
2022-11-15T04:34:14.058Z,100034.00
2022-11-15T04:37:01.487Z,100020.00
2022-11-15T04:39:30.285Z,100032.00
2022-11-15T04:41:58.998Z,100019.00
2022-11-15T04:44:27.685Z,100022.00
2022-11-15T04:46:56.399Z,100024.00
2022-11-15T04:49:25.105Z,100024.00
2022-11-15T04:51:55.210Z,100025.00
2022-11-15T04:54:24.149Z,100023.00
2022-11-15T04:56:52.973Z,100013.00
2022-11-15T04:59:21.683Z,100018.00
2022-11-15T05:01:50.379Z,100009.00
2022-11-15T05:04:20.526Z,99999.00
2022-11-15T05:06:51.115Z,100001.00
2022-11-15T05:09:22.767Z,100000.00
2022-11-15T05:11:51.448Z,100016.00
2022-11-15T05:14:20.196Z,100008.00
2022-11-15T05:16:49.309Z,100012.00
2022-11-15T05:19:17.984Z,100008.00
2022-11-15T05:21:46.712Z,100013.00
2022-11-15T05:24:15.477Z,100003.00
2022-11-15T05:26:45.552Z,100004.00
2022-11-15T05:29:14.202Z,100002.00
2022-11-15T05:31:44.337Z,100006.00
2022-11-15T05:34:13.197Z,100005.00
2022-11-15T05:36:45.804Z,100007.00
2022-11-15T05:39:14.586Z,100013.00
2022-11-15T05:41:49.215Z,100001.00
2022-11-15T05:44:22.123Z,100008.00
2022-11-15T05:46:54.435Z,100004.00
2022-11-15T05:49:27.289Z,100003.00
2022-11-15T05:51:56.444Z,99998.00
2022-11-15T05:54:27.087Z,99997.00
2022-11-15T05:56:57.334Z,99994.00
2022-11-15T05:59:26.571Z,99990.00
2022-11-15T06:01:55.400Z,100001.00
2022-11-15T06:04:24.156Z,100004.00
2022-11-15T06:06:52.974Z,99987.00
2022-11-15T06:09:25.185Z,99994.00
2022-11-15T06:11:54.278Z,99998.00
2022-11-15T06:14:24.804Z,100007.00
2022-11-15T06:16:53.728Z,99999.00
2022-11-15T06:19:22.735Z,100008.00
2022-11-15T06:21:51.513Z,100005.00
2022-11-15T06:24:20.451Z,100000.00
2022-11-15T06:26:49.461Z,100001.00
2022-11-15T06:29:18.243Z,100011.00
2022-11-15T06:31:48.366Z,100015.00
2022-11-15T06:34:17.005Z,100012.00
2022-11-15T06:36:45.810Z,100003.00
2022-11-15T06:39:14.579Z,100004.00
2022-11-15T06:41:43.255Z,100000.00
2022-11-15T06:44:11.870Z,100012.00
2022-11-15T06:46:40.525Z,100008.00
2022-11-15T06:49:10.526Z,100003.00
2022-11-15T06:51:39.223Z,100011.00
2022-11-15T06:54:08.003Z,100023.00
2022-11-15T06:56:36.993Z,100019.00
2022-11-15T06:59:05.762Z,100021.00
2022-11-15T07:01:34.537Z,100016.00
2022-11-15T07:04:03.245Z,100026.00
2022-11-15T07:06:33.272Z,100023.00
2022-11-15T07:09:03.940Z,100030.00
2022-11-15T07:11:32.627Z,100030.00
2022-11-15T07:14:01.901Z,100036.00
2022-11-15T07:16:30.504Z,100031.00
2022-11-15T07:18:59.424Z,100042.00
2022-11-15T07:21:28.109Z,100032.00
2022-11-15T07:23:58.357Z,100029.00
2022-11-15T07:26:27.088Z,100040.00
2022-11-15T07:28:55.784Z,100042.00
2022-11-15T07:31:24.560Z,100039.00
2022-11-15T07:33:53.173Z,100041.00
2022-11-15T07:36:21.877Z,100043.00
2022-11-15T07:38:50.616Z,100046.00
2022-11-15T07:41:21.292Z,100043.00
2022-11-15T07:43:52.887Z,100044.00
2022-11-15T07:46:21.847Z,100041.00
2022-11-15T07:48:50.649Z,100026.00
2022-11-15T07:51:19.822Z,100038.00
2022-11-15T07:53:48.460Z,100038.00
2022-11-15T07:56:17.148Z,100042.00
2022-11-15T07:58:48.632Z,100030.00
2022-11-15T08:01:17.295Z,100031.00
2022-11-15T08:03:45.983Z,100039.00
2022-11-15T08:06:14.622Z,100032.00
2022-11-15T08:08:43.229Z,100026.00
2022-11-15T08:11:11.863Z,100034.00
2022-11-15T08:13:40.490Z,100029.00
2022-11-15T08:16:13.020Z,100031.00
2022-11-15T08:18:41.596Z,100035.00
2022-11-15T08:21:18.510Z,100021.00
2022-11-15T08:23:47.327Z,100013.00
2022-11-15T08:26:16.288Z,100028.00
2022-11-15T08:28:44.952Z,100022.00
2022-11-15T08:31:18.841Z,100027.00
2022-11-15T08:33:47.670Z,100027.00
2022-11-15T08:36:18.038Z,100017.00
2022-11-15T08:38:46.777Z,100019.00
2022-11-15T08:41:27.902Z,100019.00
2022-11-15T08:43:56.628Z,100014.00
2022-11-15T08:46:27.090Z,100019.00
2022-11-15T08:48:55.859Z,100014.00
2022-11-15T08:51:24.458Z,100009.00
2022-11-15T08:53:53.203Z,100016.00
2022-11-15T08:56:22.051Z,100010.00
2022-11-15T08:58:50.706Z,100013.00
2022-11-15T09:01:22.059Z,100011.00
2022-11-15T09:03:52.194Z,100008.00
2022-11-15T09:06:20.849Z,100002.00
2022-11-15T09:08:49.567Z,100013.00
2022-11-15T09:11:21.386Z,100012.00
2022-11-15T09:13:50.085Z,100014.00
2022-11-15T09:16:18.736Z,100013.00
2022-11-15T09:18:47.458Z,100012.00
2022-11-15T09:21:17.493Z,100011.00
2022-11-15T09:23:46.094Z,100008.00
2022-11-15T09:26:15.191Z,100013.00
2022-11-15T09:28:44.010Z,100009.00
2022-11-15T09:31:13.184Z,100011.00
2022-11-15T09:33:46.860Z,100006.00
2022-11-15T09:36:17.806Z,100008.00
2022-11-15T09:38:46.471Z,99998.00
2022-11-15T09:41:50.606Z,100007.00
2022-11-15T09:44:37.737Z,99993.00
2022-11-15T09:47:24.861Z,99996.00
2022-11-15T09:49:57.954Z,99989.00
2022-11-15T09:52:28.512Z,99994.00
2022-11-15T09:54:57.714Z,99993.00
2022-11-15T09:57:34.728Z,99988.00
2022-11-15T10:00:44.170Z,99976.00
2022-11-15T10:03:14.740Z,99982.00
2022-11-15T10:05:45.318Z,99979.00
2022-11-15T10:08:33.924Z,99974.00
2022-11-15T10:11:35.636Z,99975.00
2022-11-15T10:13:57.267Z,99967.00
2022-11-15T10:17:08.685Z,99965.00
2022-11-15T10:19:44.792Z,99957.00
2022-11-15T10:22:26.572Z,99956.00
2022-11-15T10:25:15.120Z,99952.00
2022-11-15T10:27:45.188Z,99948.00
2022-11-15T10:30:17.262Z,99955.00
2022-11-15T10:32:47.997Z,99943.00
2022-11-15T10:35:27.003Z,99937.00
2022-11-15T10:38:08.487Z,99935.00
2022-11-15T10:40:39.764Z,99927.00
2022-11-15T10:43:15.927Z,99929.00
2022-11-15T10:45:45.177Z,99923.00
2022-11-15T10:48:27.366Z,99924.00
2022-11-15T10:50:57.189Z,99914.00
2022-11-15T10:53:37.898Z,99917.00
2022-11-15T10:56:10.959Z,99911.00
2022-11-15T10:58:41.940Z,99915.00
2022-11-15T11:01:19.831Z,99918.00
2022-11-15T11:04:01.755Z,99904.00
2022-11-15T11:06:30.908Z,99903.00
2022-11-15T11:09:01.264Z,99903.00
2022-11-15T11:11:47.954Z,99899.00
2022-11-15T11:14:24.040Z,99899.00
2022-11-15T11:16:56.159Z,99895.00
2022-11-15T11:19:40.092Z,99890.00
2022-11-15T11:22:18.803Z,99890.00
2022-11-15T11:24:55.097Z,99887.00
2022-11-15T11:27:44.409Z,99882.00
2022-11-15T11:30:17.498Z,99888.00
2022-11-15T11:33:07.617Z,99883.00
2022-11-15T11:35:47.459Z,99878.00
2022-11-15T11:38:40.809Z,99874.00
2022-11-15T11:41:18.545Z,99871.00
2022-11-15T11:43:58.450Z,99871.00
2022-11-15T11:46:50.385Z,99869.00
2022-11-15T11:49:23.112Z,99860.00
2022-11-15T11:51:56.488Z,99863.00
2022-11-15T11:54:34.674Z,99856.00
2022-11-15T11:57:07.735Z,99850.00
2022-11-15T11:59:44.413Z,99849.00
2022-11-15T12:02:20.244Z,99848.00
2022-11-15T12:04:53.680Z,99837.00
2022-11-15T12:07:26.672Z,99832.00
2022-11-15T12:10:01.591Z,99825.00
2022-11-15T12:12:37.129Z,99822.00
2022-11-15T12:15:14.732Z,99822.00
2022-11-15T12:17:44.639Z,99811.00
2022-11-15T12:20:19.621Z,99822.00
2022-11-15T12:22:54.431Z,99810.00
2022-11-15T12:25:27.838Z,99800.00
2022-11-15T12:27:59.333Z,99794.00
2022-11-15T12:30:41.526Z,99795.00
2022-11-15T12:33:36.727Z,99796.00
2022-11-15T12:36:07.977Z,99794.00
2022-11-15T12:38:56.756Z,99794.00
2022-11-15T12:41:28.653Z,99793.00
2022-11-15T12:44:00.037Z,99784.00
2022-11-15T12:47:05.072Z,99780.00
2022-11-15T12:49:47.913Z,99782.00
2022-11-15T12:52:17.626Z,99765.00
2022-11-15T12:55:20.754Z,99769.00
2022-11-15T12:57:49.377Z,99767.00
2022-11-15T13:00:48.148Z,99769.00
2022-11-15T13:03:31.367Z,99757.00
2022-11-15T13:06:10.021Z,99765.00
2022-11-15T13:08:49.318Z,99765.00
2022-11-15T13:11:50.210Z,99769.00
2022-11-15T13:14:47.445Z,99759.00
2022-11-15T13:17:47.481Z,99758.00
2022-11-15T13:20:29.486Z,99764.00
2022-11-15T13:23:10.098Z,99769.00
2022-11-15T13:26:14.258Z,99772.00
2022-11-15T13:28:47.195Z,99761.00
2022-11-15T13:31:31.384Z,99758.00
2022-11-15T13:34:17.724Z,99760.00
2022-11-15T13:36:54.292Z,99753.00
2022-11-15T13:39:31.043Z,99755.00
2022-11-15T13:42:00.057Z,99753.00
2022-11-15T13:44:30.812Z,99744.00
2022-11-15T13:47:07.730Z,99744.00
2022-11-15T13:49:38.965Z,99742.00
2022-11-15T13:52:13.281Z,99743.00
2022-11-15T13:54:47.925Z,99731.00
2022-11-15T13:57:20.741Z,99725.00
2022-11-15T13:59:52.403Z,99728.00
2022-11-15T14:02:23.526Z,99716.00
2022-11-15T14:04:55.567Z,99723.00
2022-11-15T14:07:28.691Z,99713.00
2022-11-15T14:09:57.992Z,99719.00
2022-11-15T14:12:31.711Z,99715.00
2022-11-15T14:15:01.139Z,99709.00
2022-11-15T14:17:38.755Z,99708.00
2022-11-15T14:20:37.161Z,99724.00
2022-11-15T14:23:20.261Z,99717.00
2022-11-15T14:25:55.878Z,99728.00
2022-11-15T14:28:37.568Z,99723.00
2022-11-15T14:31:14.002Z,99712.00
2022-11-15T14:33:43.224Z,99718.00
2022-11-15T14:36:15.796Z,99712.00
2022-11-15T14:38:46.240Z,99715.00
2022-11-15T14:41:22.559Z,99716.00
2022-11-15T14:43:51.907Z,99722.00
2022-11-15T14:46:20.525Z,99724.00
2022-11-15T14:48:49.179Z,99712.00
2022-11-15T14:51:19.689Z,99719.00
2022-11-15T14:53:50.242Z,99706.00
2022-11-15T14:56:18.891Z,99704.00
2022-11-15T14:58:47.545Z,99706.00
2022-11-15T15:01:19.731Z,99709.00
2022-11-15T15:03:48.394Z,99707.00
2022-11-15T15:06:18.503Z,99711.00
2022-11-15T15:08:51.308Z,99698.00
2022-11-15T15:11:24.011Z,99701.00
2022-11-15T15:13:53.347Z,99699.00
2022-11-15T15:16:22.674Z,99692.00
2022-11-15T15:18:51.940Z,99694.00
2022-11-15T15:21:24.504Z,99686.00
2022-11-15T15:23:56.045Z,99688.00
2022-11-15T15:26:25.198Z,99685.00
2022-11-15T15:28:53.865Z,99689.00
2022-11-15T15:31:22.511Z,99695.00
2022-11-15T15:33:51.155Z,99694.00
2022-11-15T15:36:21.009Z,99688.00
2022-11-15T15:38:49.597Z,99689.00
2022-11-15T15:41:20.063Z,99684.00
2022-11-15T15:43:48.776Z,99677.00
2022-11-15T15:46:19.613Z,99690.00
2022-11-15T15:48:48.997Z,99684.00
2022-11-15T15:51:20.469Z,99691.00
2022-11-15T15:53:49.905Z,99690.00
2022-11-15T15:56:19.964Z,99677.00
2022-11-15T15:58:48.619Z,99682.00
2022-11-15T16:01:17.323Z,99676.00
2022-11-15T16:03:46.034Z,99666.00
2022-11-15T16:06:39.270Z,99667.00
2022-11-15T16:09:15.408Z,99670.00
2022-11-15T16:11:48.010Z,99680.00
2022-11-15T16:14:16.701Z,99681.00
2022-11-15T16:16:45.357Z,99677.00
2022-11-15T16:19:14.312Z,99677.00
2022-11-15T16:21:42.973Z,99670.00
2022-11-15T16:24:11.630Z,99669.00
2022-11-15T16:26:40.721Z,99664.00
2022-11-15T16:29:11.980Z,99673.00
2022-11-15T16:31:40.807Z,99671.00
2022-11-15T16:34:09.479Z,99668.00
2022-11-15T16:36:38.603Z,99677.00
2022-11-15T16:39:07.592Z,99657.00
2022-11-15T16:41:36.298Z,99653.00
2022-11-15T16:44:05.357Z,99653.00
2022-11-15T16:46:35.542Z,99659.00
2022-11-15T16:49:04.823Z,99655.00
2022-11-15T16:51:33.431Z,99651.00
2022-11-15T16:54:02.066Z,99658.00
2022-11-15T16:56:32.007Z,99646.00
2022-11-15T16:59:02.025Z,99648.00
2022-11-15T17:01:32.236Z,99651.00
2022-11-15T17:04:12.518Z,99645.00
2022-11-15T17:06:42.025Z,99644.00
2022-11-15T17:09:14.136Z,99638.00
2022-11-15T17:11:43.497Z,99633.00
2022-11-15T17:14:13.016Z,99639.00
2022-11-15T17:16:44.387Z,99632.00
2022-11-15T17:19:19.650Z,99643.00
2022-11-15T17:21:50.523Z,99634.00
2022-11-15T17:24:20.975Z,99639.00
2022-11-15T17:26:49.786Z,99629.00
2022-11-15T17:29:18.604Z,99628.00
2022-11-15T17:31:47.266Z,99635.00
2022-11-15T17:34:17.216Z,99638.00
2022-11-15T17:36:45.870Z,99627.00
2022-11-15T17:39:14.481Z,99627.00
2022-11-15T17:41:43.258Z,99624.00
2022-11-15T17:44:12.185Z,99627.00
2022-11-15T17:46:40.853Z,99621.00
2022-11-15T17:49:09.509Z,99623.00
2022-11-15T17:51:39.533Z,99619.00
2022-11-15T17:54:08.179Z,99619.00
2022-11-15T17:56:41.504Z,99618.00
2022-11-15T17:59:14.824Z,99612.00
2022-11-15T18:01:45.919Z,99615.00
2022-11-15T18:04:15.316Z,99609.00
2022-11-15T18:06:45.388Z,99604.00
2022-11-15T18:09:14.075Z,99604.00
2022-11-15T18:11:44.835Z,99586.00
2022-11-15T18:14:16.443Z,99585.00
2022-11-15T18:16:45.166Z,99578.00
2022-11-15T18:19:14.214Z,99582.00
2022-11-15T18:21:57.242Z,99568.00
2022-11-15T18:24:26.835Z,99567.00
2022-11-15T18:26:55.464Z,99572.00
2022-11-15T18:29:25.555Z,99575.00
2022-11-15T18:31:56.166Z,99574.00
2022-11-15T18:34:25.972Z,99568.00
2022-11-15T18:36:56.098Z,99560.00
2022-11-15T18:39:24.865Z,99571.00
2022-11-15T18:41:53.545Z,99564.00
2022-11-15T18:44:22.144Z,99565.00
2022-11-15T18:46:50.965Z,99562.00
2022-11-15T18:49:20.318Z,99560.00
2022-11-15T18:51:49.054Z,99553.00
2022-11-15T18:54:19.377Z,99556.00
2022-11-15T18:56:48.494Z,99553.00
2022-11-15T18:59:17.542Z,99555.00
2022-11-15T19:01:48.672Z,99564.00
2022-11-15T19:04:19.605Z,99562.00
2022-11-15T19:06:50.651Z,99576.00
2022-11-15T19:09:21.272Z,99575.00
2022-11-15T19:11:52.103Z,99570.00
2022-11-15T19:14:24.212Z,99576.00
2022-11-15T19:16:54.643Z,99570.00
2022-11-15T19:19:24.954Z,99569.00
2022-11-15T19:21:54.178Z,99564.00
2022-11-15T19:24:24.279Z,99562.00
2022-11-15T19:26:52.930Z,99565.00
2022-11-15T19:29:21.693Z,99568.00
2022-11-15T19:31:50.330Z,99564.00
2022-11-15T19:34:19.399Z,99555.00
2022-11-15T19:36:48.178Z,99561.00
2022-11-15T19:39:18.538Z,99556.00
2022-11-15T19:41:50.048Z,99551.00
2022-11-15T19:44:19.000Z,99551.00
2022-11-15T19:46:47.876Z,99544.00
2022-11-15T19:49:16.538Z,99541.00
2022-11-15T19:51:47.171Z,99540.00
2022-11-15T19:54:17.167Z,99549.00
2022-11-15T19:56:47.153Z,99556.00
2022-11-15T19:59:17.319Z,99546.00
2022-11-15T20:01:45.936Z,99545.00
2022-11-15T20:04:14.557Z,99543.00
2022-11-15T20:06:44.102Z,99549.00
2022-11-15T20:09:15.551Z,99552.00
2022-11-15T20:11:44.881Z,99543.00
2022-11-15T20:14:14.999Z,99543.00
2022-11-15T20:16:43.915Z,99544.00
2022-11-15T20:19:15.844Z,99545.00
2022-11-15T20:21:44.795Z,99536.00
2022-11-15T20:24:16.338Z,99536.00
2022-11-15T20:26:45.036Z,99532.00
2022-11-15T20:29:15.131Z,99536.00
2022-11-15T20:31:43.995Z,99528.00
2022-11-15T20:34:12.741Z,99538.00
2022-11-15T20:36:42.991Z,99528.00
2022-11-15T20:39:11.790Z,99514.00
2022-11-15T20:41:40.463Z,99521.00
2022-11-15T20:44:09.095Z,99530.00
2022-11-15T20:46:39.197Z,99526.00
2022-11-15T20:49:07.871Z,99523.00
2022-11-15T20:51:36.951Z,99519.00
2022-11-15T20:54:06.207Z,99513.00
2022-11-15T20:56:34.884Z,99518.00
2022-11-15T20:59:03.537Z,99518.00
2022-11-15T21:01:32.278Z,99518.00
2022-11-15T21:04:02.479Z,99506.00
2022-11-15T21:06:31.538Z,99514.00
2022-11-15T21:09:17.986Z,99514.00
2022-11-15T21:12:04.163Z,99509.00
2022-11-15T21:14:32.780Z,99505.00
2022-11-15T21:17:01.473Z,99499.00
2022-11-15T21:19:35.836Z,99499.00
2022-11-15T21:22:06.523Z,99496.00
2022-11-15T21:24:35.146Z,99494.00
2022-11-15T21:27:03.859Z,99495.00
2022-11-15T21:29:37.576Z,99491.00
2022-11-15T21:32:07.491Z,99485.00
2022-11-15T21:34:37.901Z,99485.00
2022-11-15T21:37:07.034Z,99482.00
2022-11-15T21:39:35.810Z,99477.00
2022-11-15T21:42:04.496Z,99470.00
2022-11-15T21:44:33.436Z,99470.00
2022-11-15T21:47:02.201Z,99458.00
2022-11-15T21:49:30.893Z,99464.00
2022-11-15T21:52:00.865Z,99457.00
2022-11-15T21:54:29.539Z,99458.00
2022-11-15T21:56:58.600Z,99456.00
2022-11-15T21:59:27.240Z,99455.00
2022-11-15T22:02:13.228Z,99451.00
2022-11-15T22:04:41.898Z,99453.00
2022-11-15T22:07:11.907Z,99443.00
2022-11-15T22:09:40.765Z,99451.00
2022-11-15T22:12:09.548Z,99445.00
2022-11-15T22:14:38.214Z,99454.00
2022-11-15T22:17:06.801Z,99444.00
2022-11-15T22:19:40.397Z,99434.00
2022-11-15T22:22:17.433Z,99429.00
2022-11-15T22:24:45.858Z,99441.00
2022-11-15T22:27:14.275Z,99434.00
2022-11-15T22:29:43.329Z,99421.00
2022-11-15T22:32:11.790Z,99417.00
2022-11-15T22:34:40.209Z,99412.00
2022-11-15T22:37:23.842Z,99403.00
2022-11-15T22:39:53.637Z,99391.00
2022-11-15T22:42:23.973Z,99394.00
2022-11-15T22:44:52.699Z,99386.00
2022-11-15T22:47:21.160Z,99399.00
2022-11-15T22:49:49.655Z,99400.00
2022-11-15T22:52:18.471Z,99395.00
2022-11-15T22:54:46.958Z,99389.00
2022-11-15T22:57:16.783Z,99382.00
2022-11-15T22:59:45.270Z,99385.00
2022-11-15T23:02:13.949Z,99390.00
2022-11-15T23:04:42.532Z,99378.00
2022-11-15T23:07:11.179Z,99374.00
2022-11-15T23:09:39.800Z,99383.00
2022-11-15T23:12:27.481Z,99370.00
2022-11-15T23:14:57.420Z,99361.00
2022-11-15T23:17:25.900Z,99356.00
2022-11-15T23:19:54.356Z,99356.00
2022-11-15T23:22:40.190Z,99353.00
2022-11-15T23:25:09.302Z,99350.00
2022-11-15T23:27:38.010Z,99357.00
2022-11-15T23:30:26.404Z,99344.00
2022-11-15T23:33:12.489Z,99348.00
2022-11-15T23:35:40.962Z,99343.00
2022-11-15T23:38:09.427Z,99339.00
2022-11-15T23:40:37.918Z,99340.00
2022-11-15T23:43:06.473Z,99346.00
2022-11-15T23:45:38.645Z,99338.00
2022-11-15T23:48:07.566Z,99342.00
2022-11-15T23:50:36.319Z,99349.00
2022-11-15T23:53:04.862Z,99347.00
2022-11-15T23:55:33.395Z,99353.00
2022-11-15T23:58:01.913Z,99349.00
